sensor_id;sensor_type;location;lat;lon;timestamp;temperature;humidity
31809;DHT22;18379;48.208;-1.518;2023-04-12T00:03:54;9.20;99.90
31809;DHT22;18379;48.208;-1.518;2023-04-12T00:08:55;8.90;99.90
31809;DHT22;18379;48.208;-1.518;2023-04-12T00:13:56;9.00;99.90
31809;DHT22;18379;48.208;-1.518;2023-04-12T00:18:57;9.00;99.90
31809;DHT22;18379;48.208;-1.518;2023-04-12T00:23:58;9.20;99.90
31809;DHT22;18379;48.208;-1.518;2023-04-12T00:28:59;9.20;99.90
31809;DHT22;18379;48.208;-1.518;2023-04-12T00:34:00;9.10;99.90
31809;DHT22;18379;48.208;-1.518;2023-04-12T00:39:00;9.00;99.90
31809;DHT22;18379;48.208;-1.518;2023-04-12T00:44:01;9.10;99.90
31809;DHT22;18379;48.208;-1.518;2023-04-12T00:49:02;9.10;99.90
31809;DHT22;18379;48.208;-1.518;2023-04-12T00:54:04;9.00;99.90
31809;DHT22;18379;48.208;-1.518;2023-04-12T00:59:05;8.80;99.90
31809;DHT22;18379;48.208;-1.518;2023-04-12T01:04:10;8.80;99.90
31809;DHT22;18379;48.208;-1.518;2023-04-12T01:14:39;8.60;99.90
31809;DHT22;18379;48.208;-1.518;2023-04-12T01:19:59;8.60;99.90
31809;DHT22;18379;48.208;-1.518;2023-04-12T01:30:45;8.70;99.90
31809;DHT22;18379;48.208;-1.518;2023-04-12T01:35:47;8.60;99.90
31809;DHT22;18379;48.208;-1.518;2023-04-12T01:40:49;8.60;99.90
31809;DHT22;18379;48.208;-1.518;2023-04-12T01:45:50;8.70;99.90
31809;DHT22;18379;48.208;-1.518;2023-04-12T01:55:59;8.90;99.90
31809;DHT22;18379;48.208;-1.518;2023-04-12T02:01:01;8.90;99.90
31809;DHT22;18379;48.208;-1.518;2023-04-12T02:06:04;8.90;99.90
31809;DHT22;18379;48.208;-1.518;2023-04-12T02:11:09;8.80;99.90
31809;DHT22;18379;48.208;-1.518;2023-04-12T02:16:10;8.80;99.90
31809;DHT22;18379;48.208;-1.518;2023-04-12T02:21:13;8.90;99.90
31809;DHT22;18379;48.208;-1.518;2023-04-12T02:26:14;8.90;99.90
31809;DHT22;18379;48.208;-1.518;2023-04-12T02:31:15;8.80;99.90
31809;DHT22;18379;48.208;-1.518;2023-04-12T02:36:16;8.80;99.90
31809;DHT22;18379;48.208;-1.518;2023-04-12T02:41:18;8.80;99.90
31809;DHT22;18379;48.208;-1.518;2023-04-12T02:46:22;8.70;99.90
31809;DHT22;18379;48.208;-1.518;2023-04-12T02:51:24;8.70;99.90
31809;DHT22;18379;48.208;-1.518;2023-04-12T02:56:25;8.60;99.90
31809;DHT22;18379;48.208;-1.518;2023-04-12T03:01:26;8.60;99.90
31809;DHT22;18379;48.208;-1.518;2023-04-12T03:06:27;8.50;99.90
31809;DHT22;18379;48.208;-1.518;2023-04-12T03:11:29;8.50;99.90
31809;DHT22;18379;48.208;-1.518;2023-04-12T03:16:30;8.20;99.90
31809;DHT22;18379;48.208;-1.518;2023-04-12T03:21:32;8.20;99.90
31809;DHT22;18379;48.208;-1.518;2023-04-12T03:26:33;8.20;99.90
31809;DHT22;18379;48.208;-1.518;2023-04-12T03:31:34;8.20;99.90
31809;DHT22;18379;48.208;-1.518;2023-04-12T03:36:35;8.20;99.90
31809;DHT22;18379;48.208;-1.518;2023-04-12T03:41:37;8.20;99.90
31809;DHT22;18379;48.208;-1.518;2023-04-12T03:46:38;8.20;99.90
31809;DHT22;18379;48.208;-1.518;2023-04-12T03:51:39;8.10;99.90
31809;DHT22;18379;48.208;-1.518;2023-04-12T03:56:43;8.00;99.90
31809;DHT22;18379;48.208;-1.518;2023-04-12T04:01:44;7.90;99.90
31809;DHT22;18379;48.208;-1.518;2023-04-12T04:06:45;7.90;99.90
31809;DHT22;18379;48.208;-1.518;2023-04-12T04:11:46;7.90;99.90
31809;DHT22;18379;48.208;-1.518;2023-04-12T04:16:49;8.00;99.90
31809;DHT22;18379;48.208;-1.518;2023-04-12T04:21:50;7.90;99.90
31809;DHT22;18379;48.208;-1.518;2023-04-12T04:26:50;7.90;99.90
31809;DHT22;18379;48.208;-1.518;2023-04-12T04:31:53;7.80;99.90
31809;DHT22;18379;48.208;-1.518;2023-04-12T04:36:54;7.80;99.90
31809;DHT22;18379;48.208;-1.518;2023-04-12T04:41:55;7.70;99.90
31809;DHT22;18379;48.208;-1.518;2023-04-12T04:46:56;7.60;99.90
31809;DHT22;18379;48.208;-1.518;2023-04-12T04:52:00;7.60;99.90
31809;DHT22;18379;48.208;-1.518;2023-04-12T04:57:01;7.60;99.90
31809;DHT22;18379;48.208;-1.518;2023-04-12T05:02:02;7.60;99.90
31809;DHT22;18379;48.208;-1.518;2023-04-12T05:07:03;7.60;99.90
31809;DHT22;18379;48.208;-1.518;2023-04-12T05:12:04;7.50;99.90
31809;DHT22;18379;48.208;-1.518;2023-04-12T05:17:05;7.50;99.90
31809;DHT22;18379;48.208;-1.518;2023-04-12T05:22:06;7.50;99.90
31809;DHT22;18379;48.208;-1.518;2023-04-12T05:27:10;7.40;99.90
31809;DHT22;18379;48.208;-1.518;2023-04-12T05:32:11;7.30;99.90
31809;DHT22;18379;48.208;-1.518;2023-04-12T05:37:11;7.20;99.90
31809;DHT22;18379;48.208;-1.518;2023-04-12T05:42:12;7.10;99.90
31809;DHT22;18379;48.208;-1.518;2023-04-12T05:47:13;7.10;99.90
31809;DHT22;18379;48.208;-1.518;2023-04-12T05:52:14;7.00;99.90
31809;DHT22;18379;48.208;-1.518;2023-04-12T05:57:15;6.90;99.90
31809;DHT22;18379;48.208;-1.518;2023-04-12T06:02:17;6.90;99.90
31809;DHT22;18379;48.208;-1.518;2023-04-12T06:07:18;7.00;99.90
31809;DHT22;18379;48.208;-1.518;2023-04-12T06:12:19;7.00;99.90
31809;DHT22;18379;48.208;-1.518;2023-04-12T06:17:20;7.00;99.90
31809;DHT22;18379;48.208;-1.518;2023-04-12T06:22:20;7.00;99.90
31809;DHT22;18379;48.208;-1.518;2023-04-12T06:27:21;7.10;99.90
31809;DHT22;18379;48.208;-1.518;2023-04-12T06:32:22;7.10;99.90
31809;DHT22;18379;48.208;-1.518;2023-04-12T06:37:23;7.20;99.90
31809;DHT22;18379;48.208;-1.518;2023-04-12T06:42:24;7.30;99.90
31809;DHT22;18379;48.208;-1.518;2023-04-12T06:47:24;7.40;99.90
31809;DHT22;18379;48.208;-1.518;2023-04-12T06:52:26;7.50;99.90
31809;DHT22;18379;48.208;-1.518;2023-04-12T06:57:26;7.50;99.90
31809;DHT22;18379;48.208;-1.518;2023-04-12T07:02:27;7.40;99.90
31809;DHT22;18379;48.208;-1.518;2023-04-12T07:07:30;7.50;99.90
31809;DHT22;18379;48.208;-1.518;2023-04-12T07:12:32;7.80;99.90
31809;DHT22;18379;48.208;-1.518;2023-04-12T07:17:32;8.00;99.90
31809;DHT22;18379;48.208;-1.518;2023-04-12T07:22:33;8.00;99.90
31809;DHT22;18379;48.208;-1.518;2023-04-12T07:27:34;8.00;99.90
31809;DHT22;18379;48.208;-1.518;2023-04-12T07:32:36;8.20;99.90
31809;DHT22;18379;48.208;-1.518;2023-04-12T07:37:39;8.20;99.90
31809;DHT22;18379;48.208;-1.518;2023-04-12T07:42:40;8.40;99.90
31809;DHT22;18379;48.208;-1.518;2023-04-12T07:47:41;8.40;99.90
31809;DHT22;18379;48.208;-1.518;2023-04-12T07:52:42;8.40;99.90
31809;DHT22;18379;48.208;-1.518;2023-04-12T07:57:43;8.30;99.90
31809;DHT22;18379;48.208;-1.518;2023-04-12T08:02:43;8.30;99.90
31809;DHT22;18379;48.208;-1.518;2023-04-12T08:07:44;8.40;99.90
31809;DHT22;18379;48.208;-1.518;2023-04-12T08:12:45;8.40;99.90
31809;DHT22;18379;48.208;-1.518;2023-04-12T08:17:46;8.60;99.90
31809;DHT22;18379;48.208;-1.518;2023-04-12T08:22:48;8.70;99.90
31809;DHT22;18379;48.208;-1.518;2023-04-12T08:27:50;9.00;99.90
31809;DHT22;18379;48.208;-1.518;2023-04-12T08:32:53;9.10;99.90
31809;DHT22;18379;48.208;-1.518;2023-04-12T08:37:55;9.20;99.90
31809;DHT22;18379;48.208;-1.518;2023-04-12T08:43:00;9.10;99.90
31809;DHT22;18379;48.208;-1.518;2023-04-12T08:48:06;9.00;99.90
31809;DHT22;18379;48.208;-1.518;2023-04-12T08:53:10;9.20;99.90
31809;DHT22;18379;48.208;-1.518;2023-04-12T08:58:14;9.30;99.90
31809;DHT22;18379;48.208;-1.518;2023-04-12T09:03:15;9.20;99.90
31809;DHT22;18379;48.208;-1.518;2023-04-12T09:08:17;9.30;99.90
31809;DHT22;18379;48.208;-1.518;2023-04-12T09:13:31;9.40;99.90
31809;DHT22;18379;48.208;-1.518;2023-04-12T09:18:47;9.50;99.90
31809;DHT22;18379;48.208;-1.518;2023-04-12T09:24:02;9.30;99.90
31809;DHT22;18379;48.208;-1.518;2023-04-12T09:29:03;9.70;99.90
31809;DHT22;18379;48.208;-1.518;2023-04-12T09:34:10;9.70;99.90
31809;DHT22;18379;48.208;-1.518;2023-04-12T09:39:11;10.00;99.90
31809;DHT22;18379;48.208;-1.518;2023-04-12T09:44:27;10.20;99.90
31809;DHT22;18379;48.208;-1.518;2023-04-12T09:49:41;10.00;99.90
31809;DHT22;18379;48.208;-1.518;2023-04-12T09:54:43;10.30;99.90
31809;DHT22;18379;48.208;-1.518;2023-04-12T09:59:48;10.30;99.90
31809;DHT22;18379;48.208;-1.518;2023-04-12T10:04:49;10.30;99.90
31809;DHT22;18379;48.208;-1.518;2023-04-12T10:09:50;10.60;99.90
31809;DHT22;18379;48.208;-1.518;2023-04-12T10:14:53;10.70;99.90
31809;DHT22;18379;48.208;-1.518;2023-04-12T10:19:54;10.70;99.90
31809;DHT22;18379;48.208;-1.518;2023-04-12T10:24:58;10.80;99.90
31809;DHT22;18379;48.208;-1.518;2023-04-12T10:35:22;11.50;99.90
31809;DHT22;18379;48.208;-1.518;2023-04-12T10:40:22;11.50;99.90
31809;DHT22;18379;48.208;-1.518;2023-04-12T10:50:32;11.60;99.90
31809;DHT22;18379;48.208;-1.518;2023-04-12T10:55:34;11.70;99.90
31809;DHT22;18379;48.208;-1.518;2023-04-12T11:05:59;11.60;99.90
31809;DHT22;18379;48.208;-1.518;2023-04-12T11:11:03;11.30;99.90
31809;DHT22;18379;48.208;-1.518;2023-04-12T11:16:05;12.00;99.90
31809;DHT22;18379;48.208;-1.518;2023-04-12T11:21:07;12.70;99.90
31809;DHT22;18379;48.208;-1.518;2023-04-12T11:26:09;12.20;99.90
31809;DHT22;18379;48.208;-1.518;2023-04-12T11:31:10;10.70;99.90
31809;DHT22;18379;48.208;-1.518;2023-04-12T11:36:11;10.30;99.90
31809;DHT22;18379;48.208;-1.518;2023-04-12T11:41:13;10.20;99.90
31809;DHT22;18379;48.208;-1.518;2023-04-12T11:46:14;10.40;99.90
31809;DHT22;18379;48.208;-1.518;2023-04-12T11:51:22;11.30;99.90
31809;DHT22;18379;48.208;-1.518;2023-04-12T11:56:28;11.40;99.90
31809;DHT22;18379;48.208;-1.518;2023-04-12T12:01:33;11.80;99.90
31809;DHT22;18379;48.208;-1.518;2023-04-12T12:06:35;12.10;99.90
31809;DHT22;18379;48.208;-1.518;2023-04-12T12:11:37;12.30;99.90
31809;DHT22;18379;48.208;-1.518;2023-04-12T12:16:41;12.50;99.90
31809;DHT22;18379;48.208;-1.518;2023-04-12T12:21:42;12.80;99.90
31809;DHT22;18379;48.208;-1.518;2023-04-12T12:26:44;13.00;99.90
31809;DHT22;18379;48.208;-1.518;2023-04-12T12:31:46;12.30;99.90
31809;DHT22;18379;48.208;-1.518;2023-04-12T12:36:53;12.80;99.90
31809;DHT22;18379;48.208;-1.518;2023-04-12T12:41:57;13.00;99.90
31809;DHT22;18379;48.208;-1.518;2023-04-12T12:46:59;13.50;99.90
31809;DHT22;18379;48.208;-1.518;2023-04-12T12:52:00;13.90;99.90
31809;DHT22;18379;48.208;-1.518;2023-04-12T12:57:01;13.10;99.90
31809;DHT22;18379;48.208;-1.518;2023-04-12T13:02:03;13.10;99.90
31809;DHT22;18379;48.208;-1.518;2023-04-12T13:07:04;12.90;99.90
31809;DHT22;18379;48.208;-1.518;2023-04-12T13:12:05;12.00;99.90
31809;DHT22;18379;48.208;-1.518;2023-04-12T13:17:06;11.60;99.90
31809;DHT22;18379;48.208;-1.518;2023-04-12T13:22:07;12.10;99.90
31809;DHT22;18379;48.208;-1.518;2023-04-12T13:27:08;12.40;99.90
31809;DHT22;18379;48.208;-1.518;2023-04-12T13:32:13;12.60;99.90
31809;DHT22;18379;48.208;-1.518;2023-04-12T13:37:15;13.20;99.90
31809;DHT22;18379;48.208;-1.518;2023-04-12T13:42:16;12.70;99.90
31809;DHT22;18379;48.208;-1.518;2023-04-12T13:47:16;13.10;99.90
31809;DHT22;18379;48.208;-1.518;2023-04-12T13:52:17;13.00;99.90
31809;DHT22;18379;48.208;-1.518;2023-04-12T13:57:18;12.10;99.90
31809;DHT22;18379;48.208;-1.518;2023-04-12T14:02:19;13.00;99.90
31809;DHT22;18379;48.208;-1.518;2023-04-12T14:07:20;13.50;99.90
31809;DHT22;18379;48.208;-1.518;2023-04-12T14:12:21;13.80;99.90
31809;DHT22;18379;48.208;-1.518;2023-04-12T14:17:22;14.20;99.90
31809;DHT22;18379;48.208;-1.518;2023-04-12T14:22:22;13.20;99.90
31809;DHT22;18379;48.208;-1.518;2023-04-12T14:27:23;12.40;99.90
31809;DHT22;18379;48.208;-1.518;2023-04-12T14:32:24;12.20;99.90
31809;DHT22;18379;48.208;-1.518;2023-04-12T14:37:25;12.70;99.90
31809;DHT22;18379;48.208;-1.518;2023-04-12T14:42:26;12.50;99.90
31809;DHT22;18379;48.208;-1.518;2023-04-12T14:47:27;13.00;99.90
31809;DHT22;18379;48.208;-1.518;2023-04-12T14:52:28;13.30;99.90
31809;DHT22;18379;48.208;-1.518;2023-04-12T14:57:29;13.50;99.90
31809;DHT22;18379;48.208;-1.518;2023-04-12T15:02:30;13.20;99.90
31809;DHT22;18379;48.208;-1.518;2023-04-12T15:07:32;12.40;99.90
31809;DHT22;18379;48.208;-1.518;2023-04-12T15:12:33;11.90;99.90
31809;DHT22;18379;48.208;-1.518;2023-04-12T15:17:35;12.00;99.90
31809;DHT22;18379;48.208;-1.518;2023-04-12T15:22:36;12.60;99.90
31809;DHT22;18379;48.208;-1.518;2023-04-12T15:27:37;13.80;99.90
31809;DHT22;18379;48.208;-1.518;2023-04-12T15:32:38;13.70;99.90
31809;DHT22;18379;48.208;-1.518;2023-04-12T15:37:40;14.40;99.90
31809;DHT22;18379;48.208;-1.518;2023-04-12T15:42:42;14.40;99.90
31809;DHT22;18379;48.208;-1.518;2023-04-12T15:47:44;13.70;99.90
31809;DHT22;18379;48.208;-1.518;2023-04-12T15:52:45;13.90;99.90
31809;DHT22;18379;48.208;-1.518;2023-04-12T15:57:46;13.10;99.90
31809;DHT22;18379;48.208;-1.518;2023-04-12T16:02:52;12.60;99.90
31809;DHT22;18379;48.208;-1.518;2023-04-12T16:07:55;12.20;99.90
31809;DHT22;18379;48.208;-1.518;2023-04-12T16:12:56;11.90;99.90
31809;DHT22;18379;48.208;-1.518;2023-04-12T16:17:58;11.90;99.90
31809;DHT22;18379;48.208;-1.518;2023-04-12T16:22:58;13.30;99.90
31809;DHT22;18379;48.208;-1.518;2023-04-12T16:28:00;12.90;99.90
31809;DHT22;18379;48.208;-1.518;2023-04-12T16:33:04;12.20;99.90
31809;DHT22;18379;48.208;-1.518;2023-04-12T16:38:05;11.60;99.90
31809;DHT22;18379;48.208;-1.518;2023-04-12T16:43:07;10.50;99.90
31809;DHT22;18379;48.208;-1.518;2023-04-12T16:48:08;9.80;99.90
31809;DHT22;18379;48.208;-1.518;2023-04-12T16:53:09;9.80;99.90
31809;DHT22;18379;48.208;-1.518;2023-04-12T16:58:11;9.40;99.90
31809;DHT22;18379;48.208;-1.518;2023-04-12T17:03:12;9.10;99.90
31809;DHT22;18379;48.208;-1.518;2023-04-12T17:08:15;9.20;99.90
31809;DHT22;18379;48.208;-1.518;2023-04-12T17:13:22;9.30;99.90
31809;DHT22;18379;48.208;-1.518;2023-04-12T17:18:22;9.40;99.90
31809;DHT22;18379;48.208;-1.518;2023-04-12T17:23:23;9.40;99.90
31809;DHT22;18379;48.208;-1.518;2023-04-12T17:28:30;9.40;99.90
31809;DHT22;18379;48.208;-1.518;2023-04-12T17:33:34;9.30;99.90
31809;DHT22;18379;48.208;-1.518;2023-04-12T17:38:37;9.20;99.90
31809;DHT22;18379;48.208;-1.518;2023-04-12T17:43:37;8.70;99.90
31809;DHT22;18379;48.208;-1.518;2023-04-12T17:48:38;8.80;99.90
31809;DHT22;18379;48.208;-1.518;2023-04-12T17:53:41;8.70;99.90
31809;DHT22;18379;48.208;-1.518;2023-04-12T17:58:42;8.50;99.90
31809;DHT22;18379;48.208;-1.518;2023-04-12T18:03:43;8.60;99.90
31809;DHT22;18379;48.208;-1.518;2023-04-12T18:08:43;8.50;99.90
31809;DHT22;18379;48.208;-1.518;2023-04-12T18:13:44;8.50;99.90
31809;DHT22;18379;48.208;-1.518;2023-04-12T18:18:45;8.60;99.90
31809;DHT22;18379;48.208;-1.518;2023-04-12T18:23:46;8.80;99.90
31809;DHT22;18379;48.208;-1.518;2023-04-12T18:28:48;8.70;99.90
31809;DHT22;18379;48.208;-1.518;2023-04-12T18:33:49;8.70;99.90
31809;DHT22;18379;48.208;-1.518;2023-04-12T18:38:50;8.60;99.90
31809;DHT22;18379;48.208;-1.518;2023-04-12T18:43:51;8.60;99.90
31809;DHT22;18379;48.208;-1.518;2023-04-12T18:48:51;8.60;99.90
31809;DHT22;18379;48.208;-1.518;2023-04-12T18:53:54;8.60;99.90
31809;DHT22;18379;48.208;-1.518;2023-04-12T18:58:55;8.50;99.90
31809;DHT22;18379;48.208;-1.518;2023-04-12T19:03:56;8.60;99.90
31809;DHT22;18379;48.208;-1.518;2023-04-12T19:08:59;8.60;99.90
31809;DHT22;18379;48.208;-1.518;2023-04-12T19:14:00;8.70;99.90
31809;DHT22;18379;48.208;-1.518;2023-04-12T19:19:01;8.80;99.90
31809;DHT22;18379;48.208;-1.518;2023-04-12T19:24:02;8.80;99.90
31809;DHT22;18379;48.208;-1.518;2023-04-12T19:29:03;8.80;99.90
31809;DHT22;18379;48.208;-1.518;2023-04-12T19:34:04;8.90;99.90
31809;DHT22;18379;48.208;-1.518;2023-04-12T19:39:05;8.90;99.90
31809;DHT22;18379;48.208;-1.518;2023-04-12T19:44:06;9.10;99.90
31809;DHT22;18379;48.208;-1.518;2023-04-12T19:49:07;9.20;99.90
31809;DHT22;18379;48.208;-1.518;2023-04-12T19:54:09;9.10;99.90
31809;DHT22;18379;48.208;-1.518;2023-04-12T19:59:10;9.00;99.90
31809;DHT22;18379;48.208;-1.518;2023-04-12T20:04:10;8.90;99.90
31809;DHT22;18379;48.208;-1.518;2023-04-12T20:09:12;8.90;99.90
31809;DHT22;18379;48.208;-1.518;2023-04-12T20:14:12;8.90;99.90
31809;DHT22;18379;48.208;-1.518;2023-04-12T20:19:13;8.80;99.90
31809;DHT22;18379;48.208;-1.518;2023-04-12T20:24:16;8.80;99.90
31809;DHT22;18379;48.208;-1.518;2023-04-12T20:29:17;8.80;99.90
31809;DHT22;18379;48.208;-1.518;2023-04-12T20:34:18;8.80;99.90
31809;DHT22;18379;48.208;-1.518;2023-04-12T20:39:23;8.90;99.90
31809;DHT22;18379;48.208;-1.518;2023-04-12T20:44:24;8.80;99.90
31809;DHT22;18379;48.208;-1.518;2023-04-12T20:49:25;8.80;99.90
31809;DHT22;18379;48.208;-1.518;2023-04-12T20:54:27;8.80;99.90
31809;DHT22;18379;48.208;-1.518;2023-04-12T20:59:32;8.70;99.90
31809;DHT22;18379;48.208;-1.518;2023-04-12T21:04:34;8.70;99.90
31809;DHT22;18379;48.208;-1.518;2023-04-12T21:09:36;8.60;99.90
31809;DHT22;18379;48.208;-1.518;2023-04-12T21:14:37;8.60;99.90
31809;DHT22;18379;48.208;-1.518;2023-04-12T21:19:38;8.50;99.90
31809;DHT22;18379;48.208;-1.518;2023-04-12T21:24:41;8.50;99.90
31809;DHT22;18379;48.208;-1.518;2023-04-12T21:29:41;8.40;99.90
31809;DHT22;18379;48.208;-1.518;2023-04-12T21:34:42;8.40;99.90
31809;DHT22;18379;48.208;-1.518;2023-04-12T21:39:43;8.40;99.90
31809;DHT22;18379;48.208;-1.518;2023-04-12T21:44:44;8.30;99.90
31809;DHT22;18379;48.208;-1.518;2023-04-12T21:49:45;8.30;99.90
31809;DHT22;18379;48.208;-1.518;2023-04-12T21:54:46;8.20;99.90
31809;DHT22;18379;48.208;-1.518;2023-04-12T21:59:46;8.10;99.90
31809;DHT22;18379;48.208;-1.518;2023-04-12T22:04:48;8.10;99.90
31809;DHT22;18379;48.208;-1.518;2023-04-12T22:09:51;8.10;99.90
31809;DHT22;18379;48.208;-1.518;2023-04-12T22:14:52;8.10;99.90
31809;DHT22;18379;48.208;-1.518;2023-04-12T22:19:53;8.10;99.90
31809;DHT22;18379;48.208;-1.518;2023-04-12T22:24:56;8.10;99.90
31809;DHT22;18379;48.208;-1.518;2023-04-12T22:29:56;8.00;99.90
31809;DHT22;18379;48.208;-1.518;2023-04-12T22:34:57;8.00;99.90
31809;DHT22;18379;48.208;-1.518;2023-04-12T22:40:00;8.00;99.90
31809;DHT22;18379;48.208;-1.518;2023-04-12T22:45:03;8.00;99.90
31809;DHT22;18379;48.208;-1.518;2023-04-12T22:50:07;7.90;99.90
31809;DHT22;18379;48.208;-1.518;2023-04-12T22:55:09;7.80;99.90
31809;DHT22;18379;48.208;-1.518;2023-04-12T23:05:27;7.80;99.90
31809;DHT22;18379;48.208;-1.518;2023-04-12T23:10:28;7.80;99.90
31809;DHT22;18379;48.208;-1.518;2023-04-12T23:15:29;7.70;99.90
31809;DHT22;18379;48.208;-1.518;2023-04-12T23:20:33;7.80;99.90
31809;DHT22;18379;48.208;-1.518;2023-04-12T23:25:34;7.80;99.90
31809;DHT22;18379;48.208;-1.518;2023-04-12T23:30:48;7.80;99.90
31809;DHT22;18379;48.208;-1.518;2023-04-12T23:35:50;7.70;99.90
31809;DHT22;18379;48.208;-1.518;2023-04-12T23:41:06;7.60;99.90
31809;DHT22;18379;48.208;-1.518;2023-04-12T23:46:07;7.60;99.90
31809;DHT22;18379;48.208;-1.518;2023-04-12T23:51:08;7.50;99.90
31809;DHT22;18379;48.208;-1.518;2023-04-12T23:56:09;7.50;99.90
